Time;durP1;ratioP1;P1;durP2;ratioP2;P2;SDS_P1;SDS_P2;PMS_P1;PMS_P2;Temp;Humidity;BMP_temperature;BMP_pressure;BME280_temperature;BME280_humidity;BME280_pressure;Samples;Min_cycle;Max_cycle;Signal;HPM_P1;HPM_P2
2022/11/23 00:01:37;;;;;;;115.57;43.50;;;2.10;99.90;;;;;;5049859;28;20086;-72
2022/11/23 00:04:06;;;;;;;113.28;43.08;;;2.10;99.90;;;;;;5051479;28;20017;-72
2022/11/23 00:06:32;;;;;;;110.18;44.50;;;2.10;99.90;;;;;;5053241;28;20040;-72
2022/11/23 00:08:57;;;;;;;113.53;43.05;;;2.00;99.90;;;;;;5053206;28;20080;-72
2022/11/23 00:11:24;;;;;;;113.05;43.08;;;2.00;99.90;;;;;;5053583;28;20037;-73
2022/11/23 00:13:50;;;;;;;114.53;43.42;;;2.00;99.90;;;;;;5052813;28;20032;-72
2022/11/23 00:16:21;;;;;;;104.90;42.22;;;1.90;99.90;;;;;;5053569;28;20029;-72
2022/11/23 00:18:47;;;;;;;108.47;43.03;;;1.80;99.90;;;;;;5053582;28;20025;-72
2022/11/23 00:21:15;;;;;;;116.20;41.75;;;1.80;99.90;;;;;;5052809;28;20392;-72
2022/11/23 00:23:42;;;;;;;112.13;44.08;;;1.80;99.90;;;;;;5052896;28;20454;-72
2022/11/23 00:26:08;;;;;;;110.75;42.42;;;1.80;99.90;;;;;;5053209;28;20032;-72
2022/11/23 00:28:37;;;;;;;121.15;43.97;;;1.80;99.90;;;;;;5053731;28;20442;-73
2022/11/23 00:31:03;;;;;;;131.73;44.53;;;1.90;99.90;;;;;;5053100;28;20024;-73
2022/11/23 00:33:29;;;;;;;121.70;44.83;;;1.90;99.90;;;;;;5035944;28;20025;-72
2022/11/23 00:35:59;;;;;;;120.05;44.83;;;1.90;99.90;;;;;;5052840;28;20523;-72
2022/11/23 00:38:25;;;;;;;132.13;45.25;;;1.90;99.90;;;;;;5053018;28;20083;-73
2022/11/23 00:40:57;;;;;;;118.47;43.50;;;1.90;99.90;;;;;;5035362;28;20388;-73
2022/11/23 00:43:23;;;;;;;115.88;42.42;;;1.90;99.90;;;;;;5053026;28;20021;-72
2022/11/23 00:45:49;;;;;;;129.15;44.65;;;1.90;99.90;;;;;;5034589;28;20051;-72
2022/11/23 00:48:15;;;;;;;119.45;45.65;;;1.90;99.90;;;;;;5053406;28;20025;-72
2022/11/23 00:50:40;;;;;;;134.10;45.13;;;1.90;99.90;;;;;;5053232;28;20040;-72
2022/11/23 00:53:06;;;;;;;128.95;48.08;;;1.90;99.90;;;;;;5055022;28;20029;-72
2022/11/23 00:55:31;;;;;;;109.07;42.47;;;2.00;99.90;;;;;;5052349;28;20021;-72
2022/11/23 00:57:57;;;;;;;128.88;44.92;;;2.00;99.90;;;;;;5056021;28;20087;-72
2022/11/23 01:00:23;;;;;;;120.13;43.28;;;2.00;99.90;;;;;;5038798;28;20025;-72
2022/11/23 01:02:48;;;;;;;136.13;45.50;;;2.00;99.90;;;;;;5057227;28;20090;-73
2022/11/23 01:05:14;;;;;;;115.50;41.05;;;2.10;99.90;;;;;;5048379;28;20032;-72
2022/11/23 01:07:39;;;;;;;122.20;44.08;;;2.10;99.90;;;;;;5036741;28;20029;-72
2022/11/23 01:10:07;;;;;;;111.13;44.33;;;2.10;99.90;;;;;;5036402;28;20048;-72
2022/11/23 01:12:32;;;;;;;111.60;42.53;;;2.20;99.90;;;;;;5036975;28;20030;-73
2022/11/23 01:14:58;;;;;;;121.18;44.13;;;2.20;99.90;;;;;;5036292;28;20030;-71
2022/11/23 01:17:23;;;;;;;121.53;43.28;;;2.20;99.90;;;;;;5056365;28;20025;-72
2022/11/23 01:19:49;;;;;;;104.07;42.53;;;2.10;99.90;;;;;;5055393;28;20037;-72
2022/11/23 01:22:14;;;;;;;100.82;39.22;;;2.10;99.90;;;;;;5056365;28;20029;-72
2022/11/23 01:24:40;;;;;;;122.80;41.85;;;2.10;99.90;;;;;;5056182;28;20476;-72
2022/11/23 01:27:05;;;;;;;114.20;41.40;;;2.10;99.90;;;;;;5056189;28;20025;-72
2022/11/23 01:29:31;;;;;;;100.13;38.13;;;2.00;99.90;;;;;;5056430;28;20036;-72
2022/11/23 01:31:56;;;;;;;115.13;41.88;;;1.90;99.90;;;;;;5055648;28;20029;-72
2022/11/23 01:34:22;;;;;;;102.80;39.28;;;1.90;99.90;;;;;;5056142;28;20095;-73
2022/11/23 01:36:47;;;;;;;101.20;40.03;;;1.90;99.90;;;;;;5055941;28;20033;-72
2022/11/23 01:39:13;;;;;;;105.68;40.90;;;1.80;99.90;;;;;;5055810;28;20103;-72
2022/11/23 01:41:41;;;;;;;95.68;39.40;;;1.80;99.90;;;;;;5055039;28;20028;-73
2022/11/23 01:44:28;;;;;;;122.40;41.13;;;1.80;99.90;;;;;;5056015;28;20362;-72
2022/11/23 01:46:57;;;;;;;101.47;39.90;;;1.80;99.90;;;;;;5053355;28;20049;-72
2022/11/23 01:49:24;;;;;;;106.55;39.00;;;1.90;99.90;;;;;;5035276;28;20028;-72
2022/11/23 01:51:53;;;;;;;118.47;41.17;;;2.00;99.90;;;;;;5043476;28;20036;-72
2022/11/23 01:54:31;;;;;;;109.10;41.33;;;2.00;99.90;;;;;;5055618;28;20025;-72
2022/11/23 01:57:02;;;;;;;110.82;42.45;;;2.10;99.90;;;;;;5037695;28;20095;-72
2022/11/23 01:59:29;;;;;;;108.25;41.40;;;2.20;99.90;;;;;;5056071;28;20376;-72
2022/11/23 02:01:55;;;;;;;107.40;41.38;;;2.20;99.90;;;;;;5042446;28;20569;-73
2022/11/23 02:04:30;;;;;;;108.82;42.60;;;2.20;99.90;;;;;;5017212;28;20059;-72
2022/11/23 02:06:58;;;;;;;111.40;40.33;;;2.30;99.90;;;;;;5044296;28;20103;-73
2022/11/23 02:09:24;;;;;;;110.80;42.38;;;2.30;99.90;;;;;;5055169;28;20037;-72
2022/11/23 02:11:50;;;;;;;110.47;39.95;;;2.30;99.90;;;;;;5054469;28;20051;-72
2022/11/23 02:14:16;;;;;;;111.35;39.33;;;2.30;99.90;;;;;;5035048;28;20036;-73
2022/11/23 02:16:42;;;;;;;106.03;41.50;;;2.30;99.90;;;;;;5035233;28;20415;-72
2022/11/23 02:19:18;;;;;;;104.75;42.47;;;2.40;99.90;;;;;;5051087;28;20032;-72
2022/11/23 02:21:44;;;;;;;100.38;37.50;;;2.40;99.90;;;;;;5055321;28;20446;-72
2022/11/23 02:24:30;;;;;;;111.75;40.35;;;2.40;99.90;;;;;;5032098;28;20032;-72
2022/11/23 02:26:56;;;;;;;99.72;40.22;;;2.50;99.90;;;;;;5034623;28;20029;-72
2022/11/23 02:29:24;;;;;;;102.18;40.47;;;2.50;99.90;;;;;;5037978;28;20114;-73
2022/11/23 02:31:49;;;;;;;107.03;41.03;;;2.50;99.90;;;;;;5051004;28;20440;-72
2022/11/23 02:34:18;;;;;;;106.15;41.92;;;2.50;99.90;;;;;;5035002;28;20034;-72
2022/11/23 02:36:51;;;;;;;107.45;40.33;;;2.50;99.90;;;;;;5034576;28;20029;-72
2022/11/23 02:39:31;;;;;;;96.95;39.78;;;2.60;99.90;;;;;;5034860;28;20025;-72
2022/11/23 02:41:57;;;;;;;98.35;38.78;;;2.60;99.90;;;;;;5035125;28;20022;-73
2022/11/23 02:44:47;;;;;;;97.70;37.13;;;2.60;99.90;;;;;;5034308;28;20454;-72
2022/11/23 02:47:13;;;;;;;99.97;39.35;;;2.70;99.90;;;;;;5035228;28;20034;-72
2022/11/23 02:49:40;;;;;;;92.32;37.45;;;2.70;99.90;;;;;;5034717;28;20552;-72
2022/11/23 02:52:07;;;;;;;106.68;38.33;;;2.70;99.90;;;;;;5034716;28;20477;-72
2022/11/23 02:54:33;;;;;;;99.45;40.72;;;2.70;99.90;;;;;;5034031;28;20040;-72
2022/11/23 02:56:59;;;;;;;95.18;39.05;;;2.70;99.90;;;;;;5034655;28;20030;-73
2022/11/23 02:59:24;;;;;;;96.15;38.85;;;2.80;99.90;;;;;;5034478;28;20059;-72
2022/11/23 03:01:50;;;;;;;100.55;39.90;;;2.80;99.90;;;;;;5034570;28;20535;-73
2022/11/23 03:04:15;;;;;;;98.13;38.33;;;2.80;99.90;;;;;;5034340;28;20029;-72
2022/11/23 03:06:41;;;;;;;94.63;38.42;;;2.90;99.90;;;;;;5034803;28;20029;-73
2022/11/23 03:09:07;;;;;;;103.97;39.75;;;2.90;99.90;;;;;;5033840;28;20159;-72
2022/11/23 03:11:33;;;;;;;92.13;37.30;;;2.80;99.90;;;;;;5034692;28;20029;-72
2022/11/23 03:13:59;;;;;;;98.43;36.05;;;2.80;99.90;;;;;;5034272;28;20040;-73
2022/11/23 03:16:24;;;;;;;95.88;38.95;;;2.60;99.90;;;;;;5033301;28;20037;-73
2022/11/23 03:18:50;;;;;;;98.53;36.88;;;2.60;99.90;;;;;;5034066;28;20029;-72
2022/11/23 03:21:16;;;;;;;95.43;37.05;;;2.50;99.90;;;;;;5033723;28;20461;-72
2022/11/23 03:23:41;;;;;;;97.13;38.17;;;2.50;99.90;;;;;;5034111;28;20057;-72
2022/11/23 03:26:07;;;;;;;85.40;36.20;;;2.40;99.90;;;;;;5033939;28;20022;-72
2022/11/23 03:28:32;;;;;;;86.80;38.28;;;2.30;99.90;;;;;;5034144;28;20520;-72
2022/11/23 03:30:58;;;;;;;88.03;34.90;;;2.30;99.90;;;;;;5033164;28;20030;-72
2022/11/23 03:33:23;;;;;;;100.60;39.03;;;2.40;99.90;;;;;;5034313;28;20386;-72
2022/11/23 03:35:49;;;;;;;98.40;38.75;;;2.40;99.90;;;;;;5033882;28;20013;-72
2022/11/23 03:38:15;;;;;;;90.63;39.28;;;2.40;99.90;;;;;;5034241;28;20045;-72
2022/11/23 03:40:43;;;;;;;91.10;38.97;;;2.40;99.90;;;;;;5033205;28;20029;-72
2022/11/23 03:43:09;;;;;;;89.22;36.47;;;2.50;99.90;;;;;;5016328;28;20088;-72
2022/11/23 03:45:34;;;;;;;99.70;38.10;;;2.50;99.90;;;;;;5033769;28;20041;-72
2022/11/23 03:48:00;;;;;;;92.32;37.85;;;2.60;99.90;;;;;;5033789;28;20033;-72
2022/11/23 03:50:28;;;;;;;108.72;38.95;;;2.70;99.90;;;;;;5015950;28;20018;-72
2022/11/23 03:52:54;;;;;;;99.15;37.22;;;2.70;99.90;;;;;;5033238;28;20075;-72
2022/11/23 03:55:20;;;;;;;103.95;36.25;;;2.80;99.90;;;;;;5034023;28;20030;-73
2022/11/23 03:57:47;;;;;;;107.18;41.22;;;2.80;99.90;;;;;;5033852;28;20132;-73
2022/11/23 04:00:13;;;;;;;94.63;36.72;;;2.90;99.90;;;;;;5032376;28;20555;-72
2022/11/23 04:02:39;;;;;;;97.88;39.35;;;2.90;99.90;;;;;;5032506;28;20022;-72
2022/11/23 04:05:06;;;;;;;106.90;40.95;;;2.90;99.90;;;;;;5047865;28;20043;-72
2022/11/23 04:07:31;;;;;;;81.10;36.67;;;3.00;99.90;;;;;;5037695;28;20024;-72
2022/11/23 04:09:57;;;;;;;87.72;38.63;;;3.00;99.90;;;;;;5044941;28;20041;-72
2022/11/23 04:12:23;;;;;;;91.28;36.45;;;3.00;99.90;;;;;;5053358;28;20025;-72
2022/11/23 04:14:48;;;;;;;83.35;36.33;;;3.00;99.90;;;;;;5047919;28;20033;-72
2022/11/23 04:17:14;;;;;;;89.15;35.63;;;3.00;99.90;;;;;;5034852;28;20094;-72
2022/11/23 04:19:39;;;;;;;88.25;34.83;;;3.00;99.90;;;;;;5053326;28;20041;-72
2022/11/23 04:22:05;;;;;;;80.03;35.40;;;3.00;99.90;;;;;;5053354;28;20039;-72
2022/11/23 04:24:30;;;;;;;89.70;36.58;;;3.00;99.90;;;;;;5053380;28;20096;-72
2022/11/23 04:26:56;;;;;;;112.90;36.42;;;3.00;99.90;;;;;;5053377;28;20075;-72
2022/11/23 04:29:21;;;;;;;88.53;37.63;;;3.00;99.90;;;;;;5057032;28;20025;-71
2022/11/23 04:31:47;;;;;;;92.50;36.70;;;3.10;99.90;;;;;;5039407;28;20071;-72
2022/11/23 04:34:12;;;;;;;83.75;37.03;;;3.10;99.90;;;;;;5057223;28;20081;-72
2022/11/23 04:36:38;;;;;;;81.28;36.03;;;3.10;99.90;;;;;;5056801;28;20036;-72
2022/11/23 04:39:05;;;;;;;85.05;35.17;;;3.20;99.90;;;;;;5056738;28;20067;-72
2022/11/23 04:41:30;;;;;;;92.00;36.17;;;3.20;99.90;;;;;;5057392;28;20522;-73
2022/11/23 04:43:56;;;;;;;83.38;36.45;;;3.20;99.90;;;;;;5057102;28;20029;-72
2022/11/23 04:46:22;;;;;;;88.05;36.17;;;3.20;99.90;;;;;;5057177;28;20021;-72
2022/11/23 04:48:47;;;;;;;85.28;33.88;;;3.20;99.90;;;;;;5057125;28;20082;-72
2022/11/23 04:51:13;;;;;;;83.15;34.90;;;3.20;99.90;;;;;;5033304;28;20044;-72
2022/11/23 04:53:39;;;;;;;83.80;36.70;;;3.20;99.90;;;;;;5037351;28;20021;-72
2022/11/23 04:56:05;;;;;;;76.88;34.97;;;3.30;99.90;;;;;;5023147;28;20051;-72
2022/11/23 04:58:30;;;;;;;85.68;36.38;;;3.30;99.90;;;;;;5036387;28;20448;-72
2022/11/23 05:00:57;;;;;;;81.45;34.55;;;3.30;99.90;;;;;;5036622;28;20053;-72
2022/11/23 05:03:23;;;;;;;83.97;34.88;;;3.30;99.90;;;;;;5036732;28;20025;-72
2022/11/23 05:05:49;;;;;;;76.60;35.13;;;3.40;99.90;;;;;;5044525;28;20021;-72
2022/11/23 05:08:14;;;;;;;85.28;35.50;;;3.40;99.90;;;;;;5056552;28;20029;-72
2022/11/23 05:10:40;;;;;;;81.63;36.28;;;3.40;99.90;;;;;;5096450;22;20045;-71
2022/11/23 05:13:05;;;;;;;93.53;36.70;;;3.40;99.90;;;;;;5017155;28;20103;-71
2022/11/23 05:15:31;;;;;;;76.28;34.25;;;3.40;99.90;;;;;;5017592;28;20029;-72
2022/11/23 05:18:02;;;;;;;78.05;34.00;;;3.40;99.90;;;;;;5017588;28;20032;-71
2022/11/23 05:20:29;;;;;;;88.13;34.17;;;3.40;99.90;;;;;;5016965;28;20040;-71
2022/11/23 05:22:54;;;;;;;75.80;31.85;;;3.40;99.90;;;;;;5017193;28;20389;-72
2022/11/23 05:25:20;;;;;;;82.00;34.60;;;3.40;99.90;;;;;;5017342;28;20025;-71
2022/11/23 05:27:45;;;;;;;77.28;33.58;;;3.50;99.90;;;;;;5017300;28;20105;-71
2022/11/23 05:30:11;;;;;;;84.18;33.97;;;3.50;99.90;;;;;;5017229;28;20032;-71
2022/11/23 05:32:37;;;;;;;91.50;35.58;;;3.50;99.90;;;;;;5016705;28;20030;-71
2022/11/23 05:35:03;;;;;;;73.40;31.73;;;3.60;99.90;;;;;;5017000;28;20029;-71
2022/11/23 05:37:28;;;;;;;75.75;32.40;;;3.60;99.90;;;;;;5016740;28;20049;-71
2022/11/23 05:39:54;;;;;;;82.60;34.78;;;3.60;99.90;;;;;;5016123;28;20034;-71
2022/11/23 05:42:19;;;;;;;75.10;33.78;;;3.60;99.90;;;;;;5017100;28;20060;-71
2022/11/23 05:44:45;;;;;;;77.95;33.40;;;3.60;99.90;;;;;;5015781;28;20029;-71
2022/11/23 05:47:10;;;;;;;89.50;36.38;;;3.70;99.90;;;;;;5015850;28;20034;-71
2022/11/23 05:49:36;;;;;;;80.80;33.33;;;3.60;99.90;;;;;;5016448;28;20034;-71
2022/11/23 05:52:01;;;;;;;85.68;33.72;;;3.60;99.90;;;;;;5016683;28;20018;-71
2022/11/23 05:54:27;;;;;;;87.03;36.25;;;3.70;99.90;;;;;;5016310;28;20394;-71
2022/11/23 05:56:52;;;;;;;70.18;32.40;;;3.70;99.90;;;;;;5017010;28;20034;-72
2022/11/23 05:59:18;;;;;;;74.97;33.05;;;3.70;99.90;;;;;;5016449;28;20026;-71
2022/11/23 06:01:43;;;;;;;83.15;32.70;;;3.70;99.90;;;;;;5015831;28;20018;-71
2022/11/23 06:04:09;;;;;;;72.40;31.88;;;3.70;99.90;;;;;;5016975;28;20060;-72
2022/11/23 06:06:34;;;;;;;71.75;33.50;;;3.70;99.90;;;;;;5016715;28;20091;-72
2022/11/23 06:09:00;;;;;;;72.15;33.58;;;3.80;99.90;;;;;;5015939;28;20037;-72
2022/11/23 06:11:25;;;;;;;80.13;33.83;;;3.80;99.90;;;;;;5014751;28;20042;-71
2022/11/23 06:13:51;;;;;;;71.65;31.98;;;3.80;99.90;;;;;;5016184;28;20034;-71
2022/11/23 06:16:16;;;;;;;69.28;32.63;;;3.70;99.90;;;;;;5001198;28;20045;-71
2022/11/23 06:18:42;;;;;;;79.30;32.75;;;3.70;99.90;;;;;;4997788;28;20030;-71
2022/11/23 06:21:07;;;;;;;69.82;33.88;;;3.70;99.90;;;;;;4998677;28;20046;-72
2022/11/23 06:23:33;;;;;;;75.93;32.97;;;3.80;99.90;;;;;;4997433;28;20561;-71
2022/11/23 06:25:59;;;;;;;83.63;35.90;;;3.80;99.90;;;;;;5013384;28;20125;-71
2022/11/23 06:28:26;;;;;;;78.78;33.17;;;3.80;99.90;;;;;;4996152;28;20022;-72
2022/11/23 06:30:51;;;;;;;65.70;31.65;;;3.80;99.90;;;;;;5005976;28;20481;-71
2022/11/23 06:33:17;;;;;;;69.03;32.13;;;3.80;99.90;;;;;;5015886;28;20097;-72
2022/11/23 06:35:52;;;;;;;69.32;31.63;;;3.80;99.90;;;;;;5014788;28;20389;-72
2022/11/23 06:38:17;;;;;;;70.70;33.92;;;3.80;99.90;;;;;;5016348;28;20363;-72
2022/11/23 06:40:43;;;;;;;73.10;34.15;;;3.80;99.90;;;;;;5015471;28;20095;-71
2022/11/23 06:43:09;;;;;;;74.80;33.05;;;3.80;99.90;;;;;;5015657;28;20098;-71
2022/11/23 06:45:34;;;;;;;88.90;36.08;;;3.90;99.90;;;;;;5015322;28;20028;-71
2022/11/23 06:48:00;;;;;;;76.82;32.85;;;3.90;99.90;;;;;;5015255;28;20397;-71
2022/11/23 06:50:25;;;;;;;72.78;32.47;;;3.90;99.90;;;;;;5014951;28;20030;-71
2022/11/23 06:52:55;;;;;;;80.38;33.33;;;3.90;99.90;;;;;;5015380;28;20030;-72
2022/11/23 06:55:21;;;;;;;78.55;34.45;;;3.90;99.90;;;;;;5015431;28;20625;-72
2022/11/23 06:57:46;;;;;;;80.32;32.13;;;3.90;99.90;;;;;;5013478;28;20114;-71
2022/11/23 07:00:12;;;;;;;75.47;30.65;;;3.90;99.90;;;;;;5013841;28;20032;-71
2022/11/23 07:02:38;;;;;;;72.50;32.15;;;4.00;99.90;;;;;;5015171;28;20026;-71
2022/11/23 07:05:03;;;;;;;77.18;31.73;;;4.00;99.90;;;;;;5015066;28;20029;-71
2022/11/23 07:07:29;;;;;;;62.55;30.95;;;4.00;99.90;;;;;;5015071;28;20072;-72
2022/11/23 07:09:54;;;;;;;86.00;33.63;;;4.00;99.90;;;;;;5012665;28;20087;-71
2022/11/23 07:12:20;;;;;;;71.85;32.50;;;4.00;99.90;;;;;;5014929;28;20049;-71
2022/11/23 07:14:45;;;;;;;76.18;34.78;;;4.00;99.90;;;;;;5014720;28;20037;-71
2022/11/23 07:17:11;;;;;;;74.53;34.78;;;4.00;99.90;;;;;;5014119;28;20433;-71
2022/11/23 07:19:36;;;;;;;73.65;34.78;;;4.00;99.90;;;;;;5015388;28;20038;-72
2022/11/23 07:22:02;;;;;;;69.55;34.38;;;4.10;99.90;;;;;;4995611;28;20022;-72
2022/11/23 07:24:28;;;;;;;67.13;32.80;;;4.00;99.90;;;;;;4994386;28;20393;-72
2022/11/23 07:26:53;;;;;;;85.50;34.53;;;4.00;99.90;;;;;;5009908;28;20024;-72
2022/11/23 07:29:19;;;;;;;74.25;33.22;;;4.10;99.90;;;;;;5014116;28;20482;-71
2022/11/23 07:31:44;;;;;;;77.93;31.90;;;4.10;99.90;;;;;;5014542;28;20100;-72
2022/11/23 07:34:10;;;;;;;69.05;32.33;;;4.10;99.90;;;;;;5014790;28;20030;-72
2022/11/23 07:36:36;;;;;;;69.10;32.88;;;4.10;99.90;;;;;;5014712;28;20026;-72
2022/11/23 07:39:02;;;;;;;73.45;34.10;;;4.10;99.90;;;;;;5014554;28;20026;-72
2022/11/23 07:41:27;;;;;;;71.47;32.25;;;4.10;99.90;;;;;;5014789;28;20481;-72
2022/11/23 07:43:53;;;;;;;74.97;32.47;;;4.10;99.90;;;;;;5014260;28;20034;-72
2022/11/23 07:46:19;;;;;;;73.28;33.95;;;4.10;99.90;;;;;;5013188;28;20374;-71
2022/11/23 07:48:44;;;;;;;81.80;33.10;;;4.10;99.90;;;;;;5014118;28;20025;-71
2022/11/23 07:51:10;;;;;;;79.60;34.10;;;4.10;99.90;;;;;;5014969;28;20112;-72
2022/11/23 07:53:36;;;;;;;75.85;30.67;;;4.20;99.90;;;;;;5013989;28;20026;-71
2022/11/23 07:56:01;;;;;;;84.97;34.22;;;4.20;99.90;;;;;;5014718;28;20033;-71
2022/11/23 07:58:27;;;;;;;73.03;32.05;;;4.20;99.90;;;;;;5014400;28;20033;-72
2022/11/23 08:00:52;;;;;;;73.47;33.22;;;4.20;99.90;;;;;;5014491;28;20026;-71
2022/11/23 08:03:18;;;;;;;69.57;32.50;;;4.20;99.90;;;;;;5013922;28;20093;-72
2022/11/23 08:05:44;;;;;;;63.22;30.38;;;4.30;99.90;;;;;;5014700;28;20022;-71
2022/11/23 08:08:10;;;;;;;61.00;31.52;;;4.30;99.90;;;;;;5014434;28;20109;-71
2022/11/23 08:10:36;;;;;;;71.30;31.75;;;4.30;99.90;;;;;;5014523;28;20105;-72
2022/11/23 08:13:04;;;;;;;64.18;30.02;;;4.30;99.90;;;;;;5014334;28;20053;-71
2022/11/23 08:15:29;;;;;;;62.08;30.55;;;4.30;99.90;;;;;;5014538;28;20034;-72
2022/11/23 08:18:00;;;;;;;60.13;29.85;;;4.40;99.90;;;;;;5013925;28;20393;-71
2022/11/23 08:20:27;;;;;;;61.42;30.25;;;4.30;99.90;;;;;;5013714;28;20026;-71
2022/11/23 08:22:54;;;;;;;66.15;31.27;;;4.40;99.90;;;;;;5014512;28;20018;-71
2022/11/23 08:25:20;;;;;;;69.55;29.25;;;4.40;99.90;;;;;;5012618;28;20386;-71
2022/11/23 08:27:46;;;;;;;68.03;31.73;;;4.40;99.90;;;;;;5014430;28;20109;-72
2022/11/23 08:30:12;;;;;;;69.65;32.05;;;4.40;99.90;;;;;;5012841;28;20061;-72
2022/11/23 08:32:38;;;;;;;60.08;28.05;;;4.50;99.90;;;;;;5013717;28;20058;-72
2022/11/23 08:35:04;;;;;;;65.20;29.63;;;4.50;99.90;;;;;;5014150;28;20066;-71
2022/11/23 08:37:29;;;;;;;66.50;30.65;;;4.50;99.90;;;;;;5014257;28;20061;-71
2022/11/23 08:39:55;;;;;;;67.18;31.65;;;4.50;99.90;;;;;;5014150;28;20030;-72
2022/11/23 08:42:20;;;;;;;58.15;29.40;;;4.60;99.90;;;;;;5013341;28;20033;-72
2022/11/23 08:44:46;;;;;;;57.75;29.08;;;4.60;99.90;;;;;;5014137;28;20030;-72
2022/11/23 08:47:11;;;;;;;66.45;30.83;;;4.60;99.90;;;;;;5014121;28;20077;-71
2022/11/23 08:49:37;;;;;;;61.35;29.13;;;4.60;99.90;;;;;;5014038;28;20106;-71
2022/11/23 08:52:03;;;;;;;62.13;31.13;;;4.60;99.90;;;;;;5013989;28;20030;-72
2022/11/23 08:54:28;;;;;;;65.85;30.27;;;4.70;99.90;;;;;;5013839;28;20037;-71
2022/11/23 08:56:54;;;;;;;58.10;30.35;;;4.70;99.90;;;;;;5012501;28;20033;-72
2022/11/23 08:59:22;;;;;;;59.38;29.90;;;4.80;99.90;;;;;;5014022;28;20025;-72
2022/11/23 09:01:48;;;;;;;60.15;29.65;;;4.80;99.90;;;;;;5013921;28;20201;-72
2022/11/23 09:04:13;;;;;;;68.47;28.65;;;4.70;99.90;;;;;;5014032;28;20133;-72
2022/11/23 09:06:39;;;;;;;59.45;29.30;;;4.80;99.90;;;;;;5013409;28;20101;-72
2022/11/23 09:09:04;;;;;;;55.50;28.67;;;4.80;99.90;;;;;;5013973;28;20041;-72
2022/11/23 09:11:30;;;;;;;56.17;27.77;;;4.90;99.90;;;;;;5013576;28;20042;-72
2022/11/23 09:13:55;;;;;;;54.70;26.73;;;4.80;99.90;;;;;;5014032;28;20388;-72
2022/11/23 09:16:21;;;;;;;53.03;26.27;;;4.90;99.90;;;;;;5017427;28;20401;-72
2022/11/23 09:18:48;;;;;;;50.42;26.13;;;4.90;99.90;;;;;;5016631;28;20109;-72
2022/11/23 09:21:14;;;;;;;44.30;23.80;;;5.00;99.90;;;;;;5016107;28;20057;-72
2022/11/23 09:23:39;;;;;;;45.95;24.70;;;5.00;99.90;;;;;;5017100;28;20037;-72
2022/11/23 09:26:05;;;;;;;47.58;25.50;;;5.00;99.90;;;;;;5017637;28;20022;-72
2022/11/23 09:28:32;;;;;;;50.47;27.77;;;5.00;99.90;;;;;;5015590;28;20018;-72
2022/11/23 09:31:00;;;;;;;50.00;27.92;;;5.00;99.90;;;;;;5016701;28;20033;-71
2022/11/23 09:33:26;;;;;;;52.67;27.80;;;5.00;99.90;;;;;;5016929;28;20034;-72
2022/11/23 09:36:00;;;;;;;51.08;27.08;;;5.00;99.90;;;;;;5015937;28;20018;-72
2022/11/23 09:38:26;;;;;;;66.82;29.67;;;5.10;99.90;;;;;;5017334;28;20029;-72
2022/11/23 09:41:04;;;;;;;69.75;29.77;;;5.00;99.90;;;;;;5016064;28;20053;-72
2022/11/23 09:43:44;;;;;;;76.03;29.38;;;5.10;99.90;;;;;;5017184;28;20018;-72
2022/11/23 09:46:24;;;;;;;61.17;28.10;;;5.10;99.90;;;;;;5016841;28;20385;-72
2022/11/23 09:49:09;;;;;;;51.30;25.88;;;5.10;99.90;;;;;;5016686;28;20033;-72
2022/11/23 09:51:37;;;;;;;57.25;27.92;;;5.10;99.90;;;;;;5016906;28;20487;-72
2022/11/23 09:54:13;;;;;;;52.03;26.75;;;5.20;99.90;;;;;;5015258;28;20033;-72
2022/11/23 09:56:41;;;;;;;58.10;26.45;;;5.20;99.90;;;;;;5016302;28;20030;-72
2022/11/23 09:59:31;;;;;;;53.70;28.67;;;5.20;99.90;;;;;;5015312;28;20564;-72
2022/11/23 10:01:59;;;;;;;54.67;26.27;;;5.20;99.90;;;;;;5016620;28;20482;-71
2022/11/23 10:04:25;;;;;;;55.58;26.15;;;5.30;99.90;;;;;;5015844;28;20018;-72
2022/11/23 10:07:01;;;;;;;53.83;27.52;;;5.30;99.90;;;;;;5016227;28;20026;-72
2022/11/23 10:09:50;;;;;;;49.75;26.02;;;5.30;99.90;;;;;;5015166;28;20461;-71
2022/11/23 10:12:45;;;;;;;60.47;27.40;;;5.30;99.90;;;;;;5016512;28;20127;-72
2022/11/23 10:15:23;;;;;;;51.58;25.92;;;5.30;99.90;;;;;;5014213;28;20482;-72
2022/11/23 10:18:04;;;;;;;56.78;27.33;;;5.30;99.90;;;;;;5016190;28;20030;-72
2022/11/23 10:20:50;;;;;;;52.53;27.20;;;5.30;99.90;;;;;;5017776;28;20087;-72
2022/11/23 10:23:37;;;;;;;49.10;25.98;;;5.30;99.90;;;;;;5018119;28;20049;-72
2022/11/23 10:26:02;;;;;;;57.03;25.63;;;5.40;99.90;;;;;;5015411;28;20018;-71
2022/11/23 10:28:30;;;;;;;53.47;26.55;;;5.40;99.90;;;;;;5015805;28;20395;-72
2022/11/23 10:31:12;;;;;;;45.67;24.88;;;5.40;99.90;;;;;;5015591;28;20026;-72
2022/11/23 10:33:53;;;;;;;54.25;26.27;;;5.50;99.90;;;;;;5016033;28;20045;-72
2022/11/23 10:36:19;;;;;;;52.20;25.55;;;5.50;99.90;;;;;;5014671;28;20022;-72
2022/11/23 10:38:49;;;;;;;52.85;25.50;;;5.60;99.90;;;;;;5013835;28;20083;-71
2022/11/23 10:41:15;;;;;;;47.45;25.35;;;5.60;99.90;;;;;;5015448;28;20014;-72
2022/11/23 10:43:51;;;;;;;50.20;26.67;;;5.70;99.90;;;;;;5015853;28;20022;-72
2022/11/23 10:46:36;;;;;;;43.60;24.52;;;5.80;99.90;;;;;;5015361;28;20033;-71
2022/11/23 10:49:26;;;;;;;49.92;25.50;;;5.80;99.90;;;;;;5015421;28;20022;-71
2022/11/23 10:51:53;;;;;;;47.08;25.77;;;5.90;99.90;;;;;;5015731;28;20026;-72
2022/11/23 10:54:21;;;;;;;48.53;23.73;;;5.90;99.90;;;;;;5014725;28;20050;-71
2022/11/23 10:56:48;;;;;;;44.38;23.23;;;5.90;99.90;;;;;;5015072;28;20045;-72
2022/11/23 10:59:28;;;;;;;43.03;24.27;;;5.80;99.90;;;;;;5015024;28;20399;-72
2022/11/23 11:02:17;;;;;;;49.67;23.60;;;5.90;99.90;;;;;;5014497;28;20054;-71
2022/11/23 11:04:44;;;;;;;41.20;22.05;;;5.90;99.90;;;;;;5015168;28;20022;-71
2022/11/23 11:07:21;;;;;;;45.78;23.58;;;5.90;99.90;;;;;;5015023;28;20433;-72
2022/11/23 11:09:59;;;;;;;38.33;24.13;;;5.90;99.90;;;;;;5015175;28;20109;-71
2022/11/23 11:12:26;;;;;;;45.50;22.38;;;6.00;99.90;;;;;;5014222;28;20100;-71
2022/11/23 11:15:15;;;;;;;43.40;22.63;;;6.00;99.90;;;;;;5013539;28;20080;-72
2022/11/23 11:17:41;;;;;;;43.30;22.95;;;6.00;99.90;;;;;;5014930;28;20034;-72
2022/11/23 11:20:32;;;;;;;39.53;22.55;;;6.10;99.90;;;;;;5014496;28;20108;-70
2022/11/23 11:23:13;;;;;;;46.65;22.65;;;6.10;99.90;;;;;;5013892;28;20396;-71
2022/11/23 11:25:39;;;;;;;45.53;21.60;;;6.10;99.90;;;;;;5015147;28;20057;-71
2022/11/23 11:28:25;;;;;;;35.75;19.92;;;6.20;99.90;;;;;;5014440;28;20050;-72
2022/11/23 11:31:19;;;;;;;39.55;20.75;;;6.30;99.90;;;;;;5014623;28;20034;-71
2022/11/23 11:34:06;;;;;;;45.05;19.48;;;6.20;99.90;;;;;;5014692;28;20018;-71
2022/11/23 11:36:40;;;;;;;43.90;19.77;;;6.30;99.90;;;;;;5014333;28;20034;-71
2022/11/23 11:39:13;;;;;;;43.40;19.17;;;6.30;99.90;;;;;;5014347;28;20109;-71
2022/11/23 11:41:41;;;;;;;36.60;19.03;;;6.30;99.90;;;;;;5014885;28;20048;-72
2022/11/23 11:44:14;;;;;;;34.38;19.25;;;6.30;99.90;;;;;;5014378;28;20080;-72
2022/11/23 11:46:46;;;;;;;41.35;19.77;;;6.40;99.90;;;;;;5013879;28;20097;-71
2022/11/23 11:49:22;;;;;;;37.88;18.70;;;6.50;99.90;;;;;;5014538;28;20108;-71
2022/11/23 11:51:59;;;;;;;42.10;18.65;;;6.50;99.90;;;;;;5014567;28;20072;-71
2022/11/23 11:54:39;;;;;;;39.70;18.20;;;6.60;99.90;;;;;;5014807;28;20030;-71
2022/11/23 11:57:20;;;;;;;32.08;16.65;;;6.50;99.90;;;;;;5014131;28;20033;-72
2022/11/23 11:59:49;;;;;;;27.33;17.00;;;6.60;99.90;;;;;;5005535;28;20023;-71
2022/11/23 12:02:21;;;;;;;28.58;17.35;;;6.60;99.90;;;;;;4994738;28;20440;-72
2022/11/23 12:05:14;;;;;;;37.53;16.52;;;6.60;99.90;;;;;;4995075;28;20080;-71
2022/11/23 12:07:47;;;;;;;34.50;17.63;;;6.60;99.90;;;;;;4994206;28;20023;-71
2022/11/23 12:10:16;;;;;;;28.17;15.60;;;6.80;99.90;;;;;;4994578;28;20125;-71
2022/11/23 12:12:42;;;;;;;37.60;17.42;;;6.80;99.90;;;;;;4993060;28;20038;-71
2022/11/23 12:15:18;;;;;;;39.22;17.23;;;6.90;99.90;;;;;;4994378;28;20063;-71
2022/11/23 12:18:08;;;;;;;38.05;16.67;;;6.90;99.90;;;;;;4994679;28;20033;-72
2022/11/23 12:21:10;;;;;;;40.97;17.17;;;7.10;99.90;;;;;;4993160;28;20029;-71
2022/11/23 12:23:47;;;;;;;30.10;15.70;;;7.30;99.90;;;;;;4998887;28;20025;-71
2022/11/23 12:26:36;;;;;;;35.72;16.30;;;7.30;99.90;;;;;;5014163;28;20514;-71
2022/11/23 12:29:26;;;;;;;35.25;15.32;;;7.20;99.90;;;;;;5013817;28;20037;-71
2022/11/23 12:32:29;;;;;;;32.65;13.93;;;7.20;99.90;;;;;;5012453;28;20029;-71
2022/11/23 12:35:27;;;;;;;28.58;13.80;;;7.10;99.90;;;;;;4998151;28;20042;-71
2022/11/23 12:38:24;;;;;;;23.35;12.77;;;7.30;99.90;;;;;;5012385;28;20539;-71
2022/11/23 12:41:13;;;;;;;31.13;11.20;;;7.30;99.90;;;;;;4995242;28;20037;-71
2022/11/23 12:44:12;;;;;;;30.63;13.77;;;7.20;99.90;;;;;;5013673;28;20109;-72
2022/11/23 12:47:05;;;;;;;35.72;12.85;;;7.20;99.90;;;;;;5013600;28;20033;-71